Terminal Aerodrome Forecast
Issued by NWS

Home | Current Version | Previous Version | Text Only | Print | Product List | Glossary On
Versions: 1 2 3 4 5 6 7 8 9 10 11 12 13 14 15 16 17 18 19
000
FTUS45 KPIH 211600 AAC
TAFSUN
TAF AMD
KSUN 211620Z 2116/2212 VRB05KT P6SM -SHRA VCTS SCT025 BKN040CB
      BKN090
      TEMPO 2116/2117 P6SM -SHRA BKN025 OVC060
     FM212100 26015KT P6SM VCSH SCT040 SCT090
     FM220100 31010KT P6SM SKC=

USA.gov is the U.S. government's official web portal to all federal, state and local government web resources and services.